Time,TemperatureF,DewpointF,PressureIn,WindDirection,WindDirectionDegrees,WindSpeedMPH,WindSpeedGustMPH,Humidity,HourlyPrecipIn,Conditions,Clouds,dailyrainin,SoftwareType,DateUTC
2013-02-03 00:07:00,47.9,47.0,30.17,NNW,343,1.0,1.0,95,0.04,,,0.00,weatherlink.com 1.10,2013-02-03 06:07:00,
2013-02-03 00:22:00,48.4,47.0,30.17,East,84,0.0,5.0,96,0.04,,,0.00,weatherlink.com 1.10,2013-02-03 06:22:00,
2013-02-03 00:37:00,48.9,48.0,30.17,NNW,332,0.0,2.0,96,0.01,,,0.00,weatherlink.com 1.10,2013-02-03 06:37:00,
2013-02-03 00:52:00,49.1,48.0,30.17,NNW,340,0.0,1.0,96,0.00,,,0.00,weatherlink.com 1.10,2013-02-03 06:52:00,
2013-02-03 01:07:00,49.5,48.0,30.17,WNW,297,1.0,2.0,96,0.00,,,0.00,weatherlink.com 1.10,2013-02-03 07:07:00,
2013-02-03 01:22:00,49.5,48.0,30.17,South,181,0.0,3.0,96,0.00,,,0.00,weatherlink.com 1.10,2013-02-03 07:22:00,
2013-02-03 01:37:00,48.9,48.0,30.17,NNW,341,0.0,1.0,96,0.00,,,0.00,weatherlink.com 1.10,2013-02-03 07:37:00,
2013-02-03 01:52:00,49.2,48.0,30.17,NNW,333,0.0,3.0,96,0.00,,,0.00,weatherlink.com 1.10,2013-02-03 07:52:00,
2013-02-03 02:07:00,49.1,48.0,30.17,NNW,330,0.0,1.0,96,0.00,,,0.00,weatherlink.com 1.10,2013-02-03 08:07:00,
2013-02-03 02:22:00,48.3,47.0,30.17,NNW,330,0.0,0.0,96,0.00,,,0.00,weatherlink.com 1.10,2013-02-03 08:22:00,
2013-02-03 02:37:00,48.1,47.0,30.17,NNW,346,0.0,1.0,96,0.00,,,0.00,weatherlink.com 1.10,2013-02-03 08:37:00,
2013-02-03 02:51:00,48.5,48.0,30.17,North,359,1.0,4.0,96,0.00,,,0.00,weatherlink.com 1.10,2013-02-03 08:51:00,
2013-02-03 03:07:00,48.5,48.0,30.18,NNW,345,1.0,6.0,96,0.00,,,0.00,weatherlink.com 1.10,2013-02-03 09:07:00,
2013-02-03 03:22:00,48.1,47.0,30.18,NNW,345,0.0,7.0,96,0.00,,,0.00,weatherlink.com 1.10,2013-02-03 09:22:00,
2013-02-03 03:37:00,47.6,46.0,30.18,NNW,340,2.0,5.0,95,0.00,,,0.00,weatherlink.com 1.10,2013-02-03 09:37:00,
2013-02-03 03:52:00,47.0,45.0,30.17,NNW,347,1.0,6.0,94,0.00,,,0.00,weatherlink.com 1.10,2013-02-03 09:52:00,
2013-02-03 04:07:00,46.1,45.0,30.17,NNW,340,0.0,4.0,94,0.00,,,0.00,weatherlink.com 1.10,2013-02-03 10:07:00,
2013-02-03 04:22:00,44.3,43.0,30.17,WNW,287,0.0,0.0,95,0.00,,,0.00,weatherlink.com 1.10,2013-02-03 10:22:00,
2013-02-03 04:37:00,43.1,42.0,30.18,WNW,286,0.0,0.0,96,0.00,,,0.00,weatherlink.com 1.10,2013-02-03 10:37:00,
2013-02-03 04:52:00,41.8,41.0,30.18,ENE,77,0.0,0.0,96,0.00,,,0.00,weatherlink.com 1.10,2013-02-03 10:52:00,
2013-02-03 05:07:00,41.6,41.0,30.18,ENE,77,0.0,0.0,96,0.00,,,0.00,weatherlink.com 1.10,2013-02-03 11:07:00,
2013-02-03 05:22:00,40.1,39.0,30.19,ENE,77,0.0,0.0,96,0.00,,,0.00,weatherlink.com 1.10,2013-02-03 11:22:00,
2013-02-03 05:37:00,40.1,39.0,30.19,ENE,77,0.0,0.0,97,0.00,,,0.00,weatherlink.com 1.10,2013-02-03 11:37:00,
2013-02-03 05:52:00,39.2,39.0,30.19,ENE,77,0.0,0.0,97,0.00,,,0.00,weatherlink.com 1.10,2013-02-03 11:52:00,
2013-02-03 06:08:00,38.7,38.0,30.19,ENE,77,0.0,0.0,97,0.00,,,0.00,weatherlink.com 1.10,2013-02-03 12:08:00,
2013-02-03 06:23:00,37.6,37.0,30.19,ENE,77,0.0,0.0,97,0.00,,,0.00,weatherlink.com 1.10,2013-02-03 12:23:00,
2013-02-03 06:38:00,37.1,36.0,30.20,ENE,78,0.0,0.0,97,0.00,,,0.00,weatherlink.com 1.10,2013-02-03 12:38:00,
2013-02-03 06:53:00,36.7,36.0,30.20,ENE,78,0.0,0.0,97,0.00,,,0.00,weatherlink.com 1.10,2013-02-03 12:53:00,
2013-02-03 07:08:00,36.1,35.0,30.21,ENE,77,0.0,0.0,97,0.00,,,0.00,weatherlink.com 1.10,2013-02-03 13:08:00,
2013-02-03 07:23:00,38.3,38.0,30.21,ENE,77,0.0,0.0,97,0.00,,,0.00,weatherlink.com 1.10,2013-02-03 13:23:00,
2013-02-03 07:38:00,41.9,41.0,30.21,ENE,78,0.0,0.0,97,0.00,,,0.00,weatherlink.com 1.10,2013-02-03 13:38:00,
2013-02-03 07:53:00,42.9,42.0,30.21,SSE,153,0.0,0.0,97,0.00,,,0.00,weatherlink.com 1.10,2013-02-03 13:53:00,
2013-02-03 08:08:00,45.2,44.0,30.21,SSW,208,0.0,0.0,97,0.00,,,0.00,weatherlink.com 1.10,2013-02-03 14:08:00,
2013-02-03 08:23:00,47.9,47.0,30.21,SSW,208,0.0,0.0,97,0.00,,,0.00,weatherlink.com 1.10,2013-02-03 14:23:00,
2013-02-03 08:38:00,50.3,47.0,30.21,WSW,253,0.0,2.0,87,0.00,,,0.00,weatherlink.com 1.10,2013-02-03 14:38:00,
2013-02-03 08:53:00,52.0,47.0,30.21,SW,231,1.0,2.0,83,0.00,,,0.00,weatherlink.com 1.10,2013-02-03 14:53:00,
2013-02-03 09:08:00,53.2,47.0,30.21,North,9,0.0,3.0,78,0.00,,,0.00,weatherlink.com 1.10,2013-02-03 15:08:00,
2013-02-03 09:23:00,54.9,44.0,30.21,SW,232,0.0,3.0,67,0.00,,,0.00,weatherlink.com 1.10,2013-02-03 15:23:00,
2013-02-03 09:38:00,56.0,45.0,30.21,WSW,249,0.0,4.0,67,0.00,,,0.00,weatherlink.com 1.10,2013-02-03 15:38:00,
2013-02-03 09:53:00,56.6,44.0,30.21,SSE,156,0.0,5.0,63,0.00,,,0.00,weatherlink.com 1.10,2013-02-03 15:53:00,
2013-02-03 10:08:00,57.7,43.0,30.20,NW,311,0.0,6.0,59,0.00,,,0.00,weatherlink.com 1.10,2013-02-03 16:08:00,
2013-02-03 10:23:00,58.4,42.0,30.20,NW,309,0.0,6.0,54,0.00,,,0.00,weatherlink.com 1.10,2013-02-03 16:23:00,
2013-02-03 10:38:00,58.8,39.0,30.19,NNW,345,5.0,10.0,49,0.00,,,0.00,weatherlink.com 1.10,2013-02-03 16:38:00,
2013-02-03 10:53:00,60.0,38.0,30.19,SW,224,1.0,10.0,45,0.00,,,0.00,weatherlink.com 1.10,2013-02-03 16:53:00,
2013-02-03 11:08:00,60.5,40.0,30.18,SW,233,1.0,10.0,47,0.00,,,0.00,weatherlink.com 1.10,2013-02-03 17:08:00,
2013-02-03 11:23:00,61.5,40.0,30.17,North,359,0.0,9.0,45,0.00,,,0.00,weatherlink.com 1.10,2013-02-03 17:23:00,
2013-02-03 11:38:00,61.8,39.0,30.17,SW,219,2.0,9.0,43,0.00,,,0.00,weatherlink.com 1.10,2013-02-03 17:38:00,
2013-02-03 11:54:00,62.8,39.0,30.16,North,360,2.0,9.0,42,0.00,,,0.00,weatherlink.com 1.10,2013-02-03 17:54:00,
2013-02-03 12:09:00,62.8,39.0,30.15,NW,313,3.0,8.0,41,0.00,,,0.00,weatherlink.com 1.10,2013-02-03 18:09:00,
2013-02-03 12:24:00,63.3,38.0,30.14,WSW,255,2.0,9.0,40,0.00,,,0.00,weatherlink.com 1.10,2013-02-03 18:24:00,
2013-02-03 12:39:00,63.6,37.0,30.12,ENE,57,4.0,9.0,38,0.00,,,0.00,weatherlink.com 1.10,2013-02-03 18:39:00,
2013-02-03 12:54:00,64.9,34.0,30.11,SW,227,7.0,7.0,32,0.00,,,0.00,weatherlink.com 1.10,2013-02-03 18:54:00,
2013-02-03 13:09:00,65.3,34.0,30.10,SW,228,1.0,10.0,31,0.00,,,0.00,weatherlink.com 1.10,2013-02-03 19:09:00,
2013-02-03 13:24:00,65.2,33.0,30.10,NNE,25,5.0,10.0,30,0.00,,,0.00,weatherlink.com 1.10,2013-02-03 19:24:00,
2013-02-03 13:39:00,65.3,31.0,30.10,WSW,256,5.0,9.0,28,0.00,,,0.00,weatherlink.com 1.10,2013-02-03 19:39:00,
2013-02-03 13:54:00,65.4,35.0,30.09,NW,325,2.0,8.0,32,0.00,,,0.00,weatherlink.com 1.10,2013-02-03 19:54:00,
2013-02-03 14:09:00,65.3,32.0,30.08,NW,324,4.0,14.0,29,0.00,,,0.00,weatherlink.com 1.10,2013-02-03 20:09:00,
2013-02-03 14:24:00,65.2,32.0,30.09,NNW,340,3.0,10.0,29,0.00,,,0.00,weatherlink.com 1.10,2013-02-03 20:24:00,
2013-02-03 14:39:00,65.6,34.0,30.09,North,354,2.0,9.0,31,0.00,,,0.00,weatherlink.com 1.10,2013-02-03 20:39:00,
2013-02-03 14:54:00,65.8,33.0,30.08,NW,316,3.0,7.0,30,0.00,,,0.00,weatherlink.com 1.10,2013-02-03 20:54:00,
2013-02-03 15:10:00,65.4,32.0,30.08,SW,235,6.0,9.0,29,0.00,,,0.00,weatherlink.com 1.10,2013-02-03 21:10:00,
2013-02-03 15:24:00,65.2,35.0,30.08,NNW,338,3.0,11.0,33,0.00,,,0.00,weatherlink.com 1.10,2013-02-03 21:24:00,
2013-02-03 15:39:00,65.0,36.0,30.08,NNW,348,5.0,14.0,34,0.00,,,0.00,weatherlink.com 1.10,2013-02-03 21:39:00,
2013-02-03 15:54:00,65.1,36.0,30.08,WNW,287,2.0,9.0,34,0.00,,,0.00,weatherlink.com 1.10,2013-02-03 21:54:00,
2013-02-03 16:09:00,64.5,35.0,30.07,ESE,115,0.0,8.0,34,0.00,,,0.00,weatherlink.com 1.10,2013-02-03 22:09:00,
2013-02-03 16:24:00,64.4,35.0,30.07,NW,324,2.0,4.0,33,0.00,,,0.00,weatherlink.com 1.10,2013-02-03 22:24:00,
2013-02-03 16:40:00,63.3,34.0,30.07,WSW,247,0.0,5.0,34,0.00,,,0.00,weatherlink.com 1.10,2013-02-03 22:40:00,
2013-02-03 16:54:00,62.1,35.0,30.07,West,277,3.0,3.0,36,0.00,,,0.00,weatherlink.com 1.10,2013-02-03 22:54:00,
2013-02-03 17:09:00,60.2,35.0,30.07,NNW,330,0.0,3.0,39,0.00,,,0.00,weatherlink.com 1.10,2013-02-03 23:09:00,
2013-02-03 17:24:00,58.3,35.0,30.07,NNW,330,0.0,0.0,42,0.00,,,0.00,weatherlink.com 1.10,2013-02-03 23:24:00,
2013-02-03 17:39:00,55.8,36.0,30.07,NNW,330,0.0,0.0,47,0.00,,,0.00,weatherlink.com 1.10,2013-02-03 23:39:00,
2013-02-03 17:54:00,54.1,36.0,30.07,NNW,330,0.0,0.0,50,0.00,,,0.00,weatherlink.com 1.10,2013-02-03 23:54:00,
2013-02-03 18:10:00,52.7,35.0,30.08,NNW,330,0.0,0.0,51,0.00,,,0.00,weatherlink.com 1.10,2013-02-04 00:10:00,
2013-02-03 18:24:00,51.0,36.0,30.08,NNW,330,0.0,0.0,56,0.00,,,0.00,weatherlink.com 1.10,2013-02-04 00:24:00,
2013-02-03 18:39:00,50.0,36.0,30.08,SW,214,0.0,1.0,58,0.00,,,0.00,weatherlink.com 1.10,2013-02-04 00:39:00,
2013-02-03 18:54:00,48.8,36.0,30.09,SW,214,0.0,0.0,62,0.00,,,0.00,weatherlink.com 1.10,2013-02-04 00:54:00,
2013-02-03 19:09:00,47.6,36.0,30.09,SW,214,0.0,0.0,64,0.00,,,0.00,weatherlink.com 1.10,2013-02-04 01:09:00,
2013-02-03 19:25:00,46.3,36.0,30.10,SW,214,0.0,0.0,68,0.00,,,0.00,weatherlink.com 1.10,2013-02-04 01:25:00,
2013-02-03 19:39:00,45.9,36.0,30.10,SW,214,0.0,0.0,69,0.00,,,0.00,weatherlink.com 1.10,2013-02-04 01:39:00,
2013-02-03 19:54:00,46.3,36.0,30.10,SW,214,0.0,0.0,67,0.00,,,0.00,weatherlink.com 1.10,2013-02-04 01:54:00,
2013-02-03 20:09:00,44.9,35.0,30.09,SW,214,0.0,0.0,69,0.00,,,0.00,weatherlink.com 1.10,2013-02-04 02:09:00,
2013-02-03 20:24:00,43.5,35.0,30.09,SW,214,0.0,0.0,72,0.00,,,0.00,weatherlink.com 1.10,2013-02-04 02:24:00,
2013-02-03 20:40:00,42.8,37.0,30.10,SW,214,0.0,0.0,80,0.00,,,0.00,weatherlink.com 1.10,2013-02-04 02:40:00,
2013-02-03 20:54:00,42.0,35.0,30.10,SW,214,0.0,0.0,77,0.00,,,0.00,weatherlink.com 1.10,2013-02-04 02:54:00,
2013-02-03 21:09:00,41.1,36.0,30.10,SW,214,0.0,0.0,83,0.00,,,0.00,weatherlink.com 1.10,2013-02-04 03:09:00,
2013-02-03 21:24:00,40.8,36.0,30.10,SW,214,0.0,0.0,84,0.00,,,0.00,weatherlink.com 1.10,2013-02-04 03:24:00,
2013-02-03 21:39:00,39.9,36.0,30.11,SW,214,0.0,0.0,86,0.00,,,0.00,weatherlink.com 1.10,2013-02-04 03:39:00,
2013-02-03 21:55:00,39.9,36.0,30.11,SW,214,0.0,0.0,85,0.00,,,0.00,weatherlink.com 1.10,2013-02-04 03:55:00,
2013-02-03 22:09:00,40.0,37.0,30.11,SW,214,0.0,0.0,87,0.00,,,0.00,weatherlink.com 1.10,2013-02-04 04:09:00,
2013-02-03 22:24:00,39.6,36.0,30.11,SW,217,0.0,0.0,87,0.00,,,0.00,weatherlink.com 1.10,2013-02-04 04:24:00,
2013-02-03 22:39:00,39.1,36.0,30.11,SW,217,0.0,0.0,88,0.00,,,0.00,weatherlink.com 1.10,2013-02-04 04:39:00,
2013-02-03 22:54:00,38.9,36.0,30.11,SW,217,0.0,0.0,89,0.00,,,0.00,weatherlink.com 1.10,2013-02-04 04:54:00,
2013-02-03 23:10:00,38.7,36.0,30.11,SW,217,0.0,0.0,89,0.00,,,0.00,weatherlink.com 1.10,2013-02-04 05:10:00,
2013-02-03 23:24:00,38.1,36.0,30.11,SW,217,0.0,0.0,90,0.00,,,0.00,weatherlink.com 1.10,2013-02-04 05:24:00,
2013-02-03 23:39:00,37.6,36.0,30.11,SW,217,0.0,0.0,92,0.00,,,0.00,weatherlink.com 1.10,2013-02-04 05:39:00,
2013-02-03 23:55:00,36.7,35.0,30.10,SW,217,0.0,0.0,93,0.00,,,0.00,weatherlink.com 1.10,2013-02-04 05:55:00,